createdAt,value
2023-03-22T00:02:08.175Z,16.17
2023-03-22T00:04:35.688Z,15.80
2023-03-22T00:07:03.241Z,15.80
2023-03-22T00:09:31.379Z,16.65
2023-03-22T00:11:58.824Z,16.62
2023-03-22T00:14:26.543Z,15.58
2023-03-22T00:16:54.194Z,15.08
2023-03-22T00:19:21.880Z,14.13
2023-03-22T00:21:50.981Z,12.85
2023-03-22T00:24:20.489Z,11.20
2023-03-22T00:26:48.014Z,11.70
2023-03-22T00:29:15.476Z,11.10
2023-03-22T00:31:42.964Z,11.00
2023-03-22T00:34:11.128Z,11.48
2023-03-22T00:36:40.046Z,13.55
2023-03-22T00:39:08.224Z,17.40
2023-03-22T00:41:35.703Z,16.52
2023-03-22T00:44:03.370Z,13.48
2023-03-22T00:46:31.352Z,10.78
2023-03-22T00:48:59.059Z,12.35
2023-03-22T00:51:27.001Z,11.53
2023-03-22T00:53:57.395Z,10.15
2023-03-22T00:56:27.013Z,11.03
2023-03-22T00:58:56.605Z,10.68
2023-03-22T01:01:24.737Z,14.20
2023-03-22T01:03:52.814Z,13.03
2023-03-22T01:06:21.484Z,13.35
2023-03-22T01:08:50.358Z,12.10
2023-03-22T01:11:18.512Z,12.98
2023-03-22T01:13:47.444Z,12.18
2023-03-22T01:16:16.586Z,12.63
2023-03-22T01:18:44.896Z,13.48
2023-03-22T01:21:13.322Z,15.10
2023-03-22T01:23:41.143Z,14.55
2023-03-22T01:26:09.058Z,15.65
2023-03-22T01:28:39.049Z,16.48
2023-03-22T01:31:07.579Z,16.42
2023-03-22T01:33:36.283Z,16.45
2023-03-22T01:36:05.022Z,18.57
2023-03-22T01:38:33.585Z,21.00
2023-03-22T01:41:01.456Z,18.50
2023-03-22T01:43:30.910Z,13.85
2023-03-22T01:45:58.756Z,11.55
2023-03-22T01:48:36.587Z,11.18
2023-03-22T01:51:18.339Z,11.08
2023-03-22T01:53:54.875Z,12.03
2023-03-22T01:56:25.534Z,9.70
2023-03-22T01:58:54.936Z,8.83
2023-03-22T02:01:25.329Z,9.05
2023-03-22T02:03:59.082Z,9.13
2023-03-22T02:06:29.251Z,11.03
2023-03-22T02:08:58.943Z,10.08
2023-03-22T02:11:32.606Z,10.68
2023-03-22T02:14:48.168Z,11.12
2023-03-22T02:18:06.311Z,12.33
2023-03-22T02:21:02.853Z,13.40
2023-03-22T02:27:17.882Z,17.92
2023-03-22T02:29:59.571Z,20.25
2023-03-22T02:32:38.722Z,19.73
2023-03-22T02:35:51.469Z,21.10
2023-03-22T02:38:33.602Z,18.65
2023-03-22T02:41:11.944Z,17.30
2023-03-22T02:43:57.081Z,18.10
2023-03-22T02:46:44.485Z,20.02
2023-03-22T02:49:23.918Z,19.60
2023-03-22T02:52:21.237Z,18.30
2023-03-22T02:55:21.233Z,18.73
2023-03-22T02:58:20.917Z,19.92
2023-03-22T03:00:54.041Z,19.90
2023-03-22T03:03:25.030Z,23.40
2023-03-22T03:05:57.291Z,22.87
2023-03-22T03:08:26.492Z,26.45
2023-03-22T03:10:55.136Z,26.80
2023-03-22T03:13:23.662Z,26.57
2023-03-22T03:15:58.532Z,23.02
2023-03-22T03:18:47.871Z,21.77
2023-03-22T03:21:34.301Z,16.73
2023-03-22T03:24:38.514Z,13.22
2023-03-22T03:27:14.753Z,12.20
2023-03-22T03:29:54.040Z,11.90
2023-03-22T03:32:47.893Z,10.15
2023-03-22T03:35:26.776Z,9.35
2023-03-22T03:38:00.953Z,9.80
2023-03-22T03:40:32.836Z,11.57
2023-03-22T03:43:03.719Z,16.87
2023-03-22T03:45:32.647Z,17.90
2023-03-22T03:48:04.829Z,19.10
2023-03-22T03:50:33.112Z,19.62
2023-03-22T03:53:01.162Z,18.98
2023-03-22T03:55:30.248Z,16.97
2023-03-22T03:57:57.812Z,16.80
2023-03-22T04:00:25.987Z,16.87
2023-03-22T04:03:02.197Z,15.48
2023-03-22T04:05:32.092Z,15.63
2023-03-22T04:07:59.996Z,15.58
2023-03-22T04:10:27.786Z,16.32
2023-03-22T04:12:55.971Z,18.57
2023-03-22T04:15:24.256Z,14.10
2023-03-22T04:17:54.015Z,14.98
2023-03-22T04:20:25.330Z,15.63
2023-03-22T04:22:53.389Z,14.50
2023-03-22T04:25:22.376Z,14.80
2023-03-22T04:27:53.868Z,15.30
2023-03-22T04:30:22.464Z,15.60
2023-03-22T04:33:06.893Z,17.60
2023-03-22T04:35:55.417Z,17.05
2023-03-22T04:38:24.859Z,16.15
2023-03-22T04:40:52.976Z,15.85
2023-03-22T04:43:22.503Z,16.15
2023-03-22T04:45:56.567Z,17.62
2023-03-22T04:48:27.577Z,15.35
2023-03-22T04:50:56.674Z,14.38
2023-03-22T04:53:26.878Z,14.50
2023-03-22T04:55:57.231Z,15.28
2023-03-22T04:58:26.304Z,15.15
2023-03-22T05:00:54.379Z,17.70
2023-03-22T05:03:22.340Z,18.55
2023-03-22T05:06:02.851Z,17.37
2023-03-22T05:08:33.058Z,16.30
2023-03-22T05:11:15.808Z,16.93
2023-03-22T05:13:46.042Z,21.80
2023-03-22T05:16:15.633Z,25.65
2023-03-22T05:18:49.578Z,23.98
2023-03-22T05:21:20.129Z,30.48
2023-03-22T05:23:51.681Z,36.55
2023-03-22T05:26:22.570Z,32.53
2023-03-22T05:28:50.967Z,35.68
2023-03-22T05:31:21.648Z,38.33
2023-03-22T05:33:54.531Z,45.20
2023-03-22T05:36:23.919Z,35.83
2023-03-22T05:39:03.267Z,32.80
2023-03-22T05:41:34.623Z,27.80
2023-03-22T05:44:02.941Z,23.62
2023-03-22T05:46:31.027Z,21.20
2023-03-22T05:49:19.668Z,23.93
2023-03-22T05:51:47.944Z,22.62
2023-03-22T05:54:16.104Z,24.00
2023-03-22T05:56:46.793Z,25.88
2023-03-22T05:59:14.958Z,26.07
2023-03-22T06:01:42.772Z,29.18
2023-03-22T06:04:15.063Z,30.68
2023-03-22T06:09:32.032Z,32.63
2023-03-22T06:12:01.415Z,32.63
2023-03-22T06:14:31.565Z,28.65
2023-03-22T06:17:09.001Z,23.77
2023-03-22T06:19:37.247Z,21.52
2023-03-22T06:22:05.885Z,21.00
2023-03-22T06:24:36.088Z,18.15
2023-03-22T06:27:06.196Z,17.98
2023-03-22T06:29:34.898Z,19.73
2023-03-22T06:32:03.668Z,21.27
2023-03-22T06:34:33.614Z,28.85
2023-03-22T06:37:02.132Z,21.60
2023-03-22T06:39:34.781Z,29.65
2023-03-22T06:42:04.164Z,22.60
2023-03-22T06:44:45.000Z,27.67
2023-03-22T06:47:29.777Z,15.55
2023-03-22T06:50:05.406Z,12.58
2023-03-22T06:52:44.585Z,13.45
2023-03-22T06:55:13.745Z,13.80
2023-03-22T06:57:41.576Z,15.15
2023-03-22T07:00:14.764Z,16.67
2023-03-22T07:02:42.538Z,13.53
2023-03-22T07:05:15.068Z,12.47
2023-03-22T07:07:43.016Z,11.25
2023-03-22T07:10:11.200Z,12.63
2023-03-22T07:12:39.526Z,11.28
2023-03-22T07:15:10.047Z,10.53
2023-03-22T07:17:52.187Z,10.38
2023-03-22T07:20:20.798Z,11.48
2023-03-22T07:22:51.064Z,10.93
2023-03-22T07:25:20.638Z,10.98
2023-03-22T07:27:49.286Z,13.20
2023-03-22T07:30:17.721Z,11.57
2023-03-22T07:32:46.250Z,13.60
2023-03-22T07:35:16.319Z,17.98
2023-03-22T07:37:44.933Z,14.90
2023-03-22T07:40:14.950Z,12.68
2023-03-22T07:42:42.671Z,10.30
2023-03-22T07:45:12.215Z,9.88
2023-03-22T07:47:43.323Z,10.13
2023-03-22T07:50:21.399Z,10.65
2023-03-22T07:52:50.939Z,11.25
2023-03-22T07:55:19.220Z,11.43
2023-03-22T07:57:46.928Z,11.25
2023-03-22T08:00:16.738Z,11.18
2023-03-22T08:02:46.263Z,14.10
2023-03-22T08:05:18.696Z,15.23
2023-03-22T08:07:50.954Z,15.48
2023-03-22T08:10:18.877Z,13.98
2023-03-22T08:12:46.829Z,11.10
2023-03-22T08:15:16.521Z,11.20
2023-03-22T08:17:50.038Z,10.55
2023-03-22T08:20:19.783Z,9.08
2023-03-22T08:22:52.883Z,10.53
2023-03-22T08:25:39.084Z,9.18
2023-03-22T08:28:12.240Z,12.93
2023-03-22T08:30:40.177Z,9.88
2023-03-22T08:33:09.369Z,10.50
2023-03-22T08:35:37.504Z,9.50
2023-03-22T08:38:08.590Z,5.40
2023-03-22T08:40:38.552Z,5.10
2023-03-22T08:43:07.324Z,5.20
2023-03-22T08:45:35.644Z,4.35
2023-03-22T08:48:06.028Z,4.80
2023-03-22T08:50:35.881Z,4.47
2023-03-22T08:53:08.634Z,5.35
2023-03-22T08:55:37.434Z,4.33
2023-03-22T08:58:16.491Z,4.83
2023-03-22T09:01:01.915Z,4.85
2023-03-22T09:03:58.449Z,4.70
2023-03-22T09:06:27.459Z,4.92
2023-03-22T09:08:58.924Z,5.10
2023-03-22T09:11:28.138Z,6.05
2023-03-22T09:13:56.260Z,5.85
2023-03-22T09:16:24.282Z,5.55
2023-03-22T09:18:52.416Z,7.00
2023-03-22T09:21:21.630Z,4.92
2023-03-22T09:23:51.367Z,7.12
2023-03-22T09:26:22.341Z,6.25
2023-03-22T09:28:51.088Z,6.33
2023-03-22T09:31:20.541Z,6.90
2023-03-22T09:33:49.936Z,8.88
2023-03-22T09:36:18.092Z,6.10
2023-03-22T09:38:46.236Z,6.97
2023-03-22T09:41:20.197Z,8.15
2023-03-22T09:43:55.559Z,6.33
2023-03-22T09:49:07.365Z,6.45
2023-03-22T09:51:51.004Z,5.65
2023-03-22T09:54:40.608Z,6.37
2023-03-22T09:57:25.891Z,6.80
2023-03-22T10:00:13.213Z,7.03
2023-03-22T10:03:04.673Z,6.40
2023-03-22T10:05:49.670Z,5.85
2023-03-22T10:08:37.186Z,5.60
2023-03-22T10:11:10.453Z,6.72
2023-03-22T10:13:52.266Z,5.67
2023-03-22T10:16:27.359Z,5.78
2023-03-22T10:21:26.691Z,7.20
2023-03-22T10:24:06.704Z,5.30
2023-03-22T10:26:40.832Z,5.87
2023-03-22T10:29:22.009Z,5.90
2023-03-22T10:31:49.936Z,7.75
2023-03-22T10:34:27.525Z,5.58
2023-03-22T10:36:55.364Z,5.45
2023-03-22T10:39:38.342Z,5.83
2023-03-22T10:42:16.575Z,6.03
2023-03-22T10:45:01.212Z,5.70
2023-03-22T10:47:45.916Z,5.78
2023-03-22T10:50:22.202Z,5.12
2023-03-22T10:52:56.281Z,5.20
2023-03-22T10:55:24.888Z,5.12
2023-03-22T10:58:18.249Z,4.97
2023-03-22T11:00:51.456Z,5.17
2023-03-22T11:03:39.618Z,5.03
2023-03-22T11:06:20.481Z,5.10
2023-03-22T11:08:51.622Z,5.05
2023-03-22T11:11:30.270Z,5.10
2023-03-22T11:14:31.105Z,5.10
2023-03-22T11:17:10.040Z,5.35
2023-03-22T11:19:42.446Z,5.92
2023-03-22T11:22:26.615Z,4.65
2023-03-22T11:24:56.420Z,4.87
2023-03-22T11:27:33.289Z,4.65
2023-03-22T11:30:20.419Z,5.15
2023-03-22T11:32:48.684Z,4.65
2023-03-22T11:35:26.592Z,4.90
2023-03-22T11:37:55.818Z,5.08
2023-03-22T11:40:27.565Z,4.30
2023-03-22T11:43:39.269Z,4.35
2023-03-22T11:46:08.838Z,5.05
2023-03-22T11:48:37.614Z,5.37
2023-03-22T11:51:13.038Z,5.20
2023-03-22T11:53:44.685Z,5.80
2023-03-22T11:56:15.861Z,4.87
2023-03-22T11:59:13.194Z,4.10
2023-03-22T12:02:02.902Z,4.42
2023-03-22T12:04:36.016Z,4.85
2023-03-22T12:07:12.490Z,4.72
2023-03-22T12:10:06.504Z,4.08
2023-03-22T12:12:42.678Z,4.25
2023-03-22T12:15:23.819Z,4.45
2023-03-22T12:18:08.019Z,6.67
2023-03-22T12:20:53.911Z,5.00
2023-03-22T12:23:28.988Z,4.75
2023-03-22T12:26:14.105Z,5.15
2023-03-22T12:29:09.404Z,4.70
2023-03-22T12:31:58.235Z,4.80
2023-03-22T12:34:47.108Z,4.60
2023-03-22T12:37:30.563Z,4.85
2023-03-22T12:40:20.269Z,4.35
2023-03-22T12:43:12.153Z,4.70
2023-03-22T12:45:54.596Z,5.03
2023-03-22T12:48:44.612Z,5.12
2023-03-22T12:51:15.864Z,4.78
2023-03-22T12:53:59.475Z,4.30
2023-03-22T12:56:43.512Z,4.28
2023-03-22T12:59:19.697Z,4.20
2023-03-22T13:01:56.255Z,4.53
2023-03-22T13:04:40.808Z,4.33
2023-03-22T13:07:30.368Z,4.70
2023-03-22T13:10:01.417Z,5.00
2023-03-22T13:12:33.442Z,4.10
2023-03-22T13:15:40.356Z,4.17
2023-03-22T13:18:00.003Z,4.80
2023-03-22T13:20:33.564Z,4.30
2023-03-22T13:23:08.359Z,4.33
2023-03-22T13:25:39.910Z,4.47
2023-03-22T13:28:26.519Z,7.25
2023-03-22T13:30:58.401Z,4.78
2023-03-22T13:33:30.887Z,6.37
2023-03-22T13:36:25.209Z,11.97
2023-03-22T13:39:04.578Z,5.22
2023-03-22T13:41:36.694Z,4.00
2023-03-22T13:44:26.086Z,6.28
2023-03-22T13:46:58.216Z,4.62
2023-03-22T13:49:52.761Z,4.20
2023-03-22T13:52:28.172Z,4.30
2023-03-22T13:57:49.764Z,5.53
2023-03-22T14:00:32.131Z,4.22
2023-03-22T14:03:24.292Z,5.12
2023-03-22T14:06:03.906Z,4.40
2023-03-22T14:08:34.502Z,4.17
2023-03-22T14:11:32.084Z,4.78
2023-03-22T14:14:15.998Z,5.87
2023-03-22T14:16:55.416Z,4.35
2023-03-22T14:19:27.478Z,4.78
